createdAt,value
2018-08-03T17:58:27.486Z,32.10
2018-08-03T18:00:55.810Z,31.90
2018-08-03T18:03:24.137Z,31.80
2018-08-03T18:05:52.453Z,31.80
2018-08-03T18:08:20.756Z,31.60
2018-08-03T18:10:49.095Z,31.60
2018-08-03T18:13:17.473Z,31.60
2018-08-03T18:15:45.885Z,31.60
2018-08-03T18:18:14.226Z,31.50
2018-08-03T18:20:42.827Z,31.50
2018-08-03T18:23:11.259Z,31.30
2018-08-03T18:25:39.689Z,31.30
2018-08-03T18:28:08.138Z,31.20
2018-08-03T18:30:36.480Z,31.20
2018-08-03T18:33:05.403Z,31.20
2018-08-03T18:35:34.028Z,31.20
2018-08-03T18:38:02.468Z,31.10
2018-08-03T18:40:30.894Z,31.10
2018-08-03T18:42:59.255Z,31.10
2018-08-03T18:45:27.590Z,31.10
2018-08-03T18:47:55.943Z,30.90
2018-08-03T18:50:24.576Z,30.90
2018-08-03T18:52:53.084Z,30.90
2018-08-03T18:55:21.553Z,30.80
2018-08-03T18:57:49.968Z,30.70
2018-08-03T19:00:18.371Z,30.60
2018-08-03T19:02:46.750Z,30.50
2018-08-03T19:05:24.949Z,30.50
2018-08-03T19:08:01.986Z,30.40
2018-08-03T19:10:31.316Z,30.40
2018-08-03T19:13:22.408Z,30.30
2018-08-03T19:15:58.718Z,30.30
2018-08-03T19:18:34.358Z,30.10
2018-08-03T19:21:05.676Z,30.10
2018-08-03T19:23:41.528Z,30.00
2018-08-03T19:26:10.696Z,30.00
2018-08-03T19:28:39.572Z,30.00
2018-08-03T19:31:08.494Z,30.00
2018-08-03T19:33:37.078Z,29.90
2018-08-03T19:36:06.289Z,30.00
2018-08-03T19:38:36.308Z,29.90
2018-08-03T19:41:05.001Z,29.90
2018-08-03T19:43:49.635Z,29.80
2018-08-03T19:46:19.679Z,29.70
2018-08-03T19:48:51.272Z,29.60
2018-08-03T19:51:23.172Z,29.60
2018-08-03T19:53:58.509Z,29.60
2018-08-03T19:59:29.617Z,29.40
2018-08-03T20:02:07.842Z,29.40
2018-08-03T20:04:45.482Z,29.30
2018-08-03T20:07:24.963Z,29.30
2018-08-03T20:12:41.721Z,29.20
2018-08-03T20:15:18.063Z,29.20
2018-08-03T20:17:50.843Z,29.00
2018-08-03T20:23:18.903Z,29.00
2018-08-03T20:25:56.760Z,28.90
2018-08-03T20:28:33.360Z,28.80
2018-08-03T20:33:45.918Z,28.70
2018-08-03T20:39:21.176Z,28.40
2018-08-03T20:42:01.706Z,28.40
2018-08-03T20:47:35.209Z,28.20
2018-08-03T20:55:35.282Z,28.20
2018-08-03T21:00:58.323Z,28.10
2018-08-03T21:03:32.510Z,28.00
2018-08-03T21:06:05.356Z,28.00
2018-08-03T21:08:42.162Z,28.00
2018-08-03T21:14:10.059Z,28.00
2018-08-03T21:16:43.156Z,28.10
2018-08-03T21:24:51.247Z,27.60
2018-08-03T21:27:36.029Z,27.50
2018-08-03T21:30:11.440Z,27.50
2018-08-03T21:32:48.637Z,27.60
2018-08-03T21:35:28.774Z,27.70
2018-08-03T21:38:02.616Z,27.70
2018-08-03T21:43:10.631Z,27.30
2018-08-03T21:45:43.187Z,27.10
2018-08-03T21:48:18.124Z,27.00
2018-08-03T21:53:38.293Z,26.90
2018-08-03T21:56:16.050Z,26.90
2018-08-03T21:58:50.243Z,26.80
2018-08-03T22:01:19.608Z,26.70
2018-08-03T22:03:56.281Z,26.50
2018-08-03T22:06:34.747Z,26.50
2018-08-03T22:09:14.315Z,26.60
2018-08-03T22:11:52.365Z,26.60
2018-08-03T22:14:29.423Z,26.60
2018-08-03T22:19:32.803Z,26.60
2018-08-03T22:22:09.684Z,26.60
2018-08-03T22:24:43.702Z,26.60
2018-08-03T22:27:21.891Z,26.50
2018-08-03T22:29:58.311Z,26.60
2018-08-03T22:35:22.419Z,26.40
2018-08-03T22:38:01.122Z,26.40
2018-08-03T22:40:39.955Z,26.40
2018-08-03T22:43:16.143Z,26.40
2018-08-03T22:46:02.932Z,26.40
2018-08-03T22:51:31.378Z,26.50
2018-08-03T22:54:06.512Z,26.50
2018-08-03T22:56:45.961Z,26.30
2018-08-03T22:59:15.897Z,26.10
2018-08-03T23:01:48.175Z,26.00
2018-08-03T23:11:09.915Z,25.70
2018-08-03T23:13:41.037Z,25.50
2018-08-03T23:16:12.247Z,25.40
2018-08-03T23:18:42.016Z,25.40
2018-08-03T23:21:13.943Z,25.30
2018-08-03T23:23:54.857Z,25.30
2018-08-03T23:26:28.538Z,25.20
2018-08-03T23:29:01.955Z,25.10
2018-08-03T23:34:20.264Z,25.10
2018-08-03T23:36:52.875Z,25.10
2018-08-03T23:39:29.750Z,25.20
2018-08-03T23:42:01.650Z,25.20
2018-08-03T23:44:31.786Z,25.10
2018-08-03T23:47:07.952Z,24.90
2018-08-03T23:52:25.097Z,24.80
2018-08-03T23:54:56.231Z,24.90
2018-08-03T23:57:35.011Z,24.90
